createdAt,value
2023-04-24T00:00:07.094Z,5.83
2023-04-24T00:01:10.128Z,5.90
2023-04-24T00:02:12.651Z,5.87
2023-04-24T00:03:15.310Z,5.80
2023-04-24T00:04:18.434Z,5.63
2023-04-24T00:05:21.043Z,6.07
2023-04-24T00:06:24.819Z,5.70
2023-04-24T00:07:27.172Z,6.37
2023-04-24T00:08:29.430Z,5.80
2023-04-24T00:09:31.660Z,5.70
2023-04-24T00:10:34.069Z,5.30
2023-04-24T00:11:37.291Z,6.07
2023-04-24T00:12:40.010Z,6.00
2023-04-24T00:13:42.320Z,6.00
2023-04-24T00:14:44.636Z,5.77
2023-04-24T00:15:46.974Z,5.73
2023-04-24T00:16:49.304Z,5.87
2023-04-24T00:17:51.710Z,5.83
2023-04-24T00:18:57.521Z,5.60
2023-04-24T00:19:59.834Z,5.60
2023-04-24T00:21:02.251Z,5.70
2023-04-24T00:22:04.787Z,5.60
2023-04-24T00:23:07.082Z,5.43
2023-04-24T00:24:10.721Z,5.20
2023-04-24T00:25:12.948Z,5.13
2023-04-24T00:26:15.215Z,5.20
2023-04-24T00:27:17.546Z,5.30
2023-04-24T00:28:19.790Z,4.93
2023-04-24T00:29:22.224Z,5.30
2023-04-24T00:30:24.536Z,4.80
2023-04-24T00:31:28.306Z,5.20
2023-04-24T00:32:31.739Z,5.20
2023-04-24T00:33:34.088Z,5.37
2023-04-24T00:34:36.462Z,5.03
2023-04-24T00:35:38.757Z,5.13
2023-04-24T00:36:41.566Z,4.90
2023-04-24T00:37:44.376Z,5.07
2023-04-24T00:38:46.834Z,4.90
2023-04-24T00:39:49.288Z,4.87
2023-04-24T00:40:52.690Z,4.70
2023-04-24T00:41:55.077Z,5.00
2023-04-24T00:42:57.786Z,4.73
2023-04-24T00:44:00.339Z,4.67
2023-04-24T00:45:04.377Z,4.70
2023-04-24T00:46:07.252Z,4.60
2023-04-24T00:47:09.604Z,4.80
2023-04-24T00:48:13.038Z,4.90
2023-04-24T00:49:15.951Z,4.80
2023-04-24T00:50:18.381Z,4.90
2023-04-24T00:51:21.132Z,4.53
2023-04-24T00:52:25.484Z,4.57
2023-04-24T00:53:27.780Z,4.60
2023-04-24T00:54:30.397Z,4.90
2023-04-24T00:55:33.430Z,5.20
2023-04-24T00:56:36.117Z,4.80
2023-04-24T00:57:40.104Z,4.63
2023-04-24T00:58:43.277Z,4.57
2023-04-24T00:59:45.752Z,4.67
2023-04-24T01:00:50.348Z,4.80
2023-04-24T01:01:52.800Z,4.87
2023-04-24T01:02:56.725Z,4.80
2023-04-24T01:04:00.499Z,4.57
2023-04-24T01:05:03.242Z,5.07
2023-04-24T01:06:06.654Z,4.57
2023-04-24T01:07:11.842Z,4.47
2023-04-24T01:08:15.190Z,4.07
2023-04-24T01:09:18.793Z,4.13
2023-04-24T01:10:21.627Z,4.50
2023-04-24T01:11:23.883Z,4.57
2023-04-24T01:12:26.166Z,4.20
2023-04-24T01:13:28.949Z,4.43
2023-04-24T01:14:32.126Z,4.17
2023-04-24T01:15:34.407Z,4.23
2023-04-24T01:16:37.059Z,4.20
2023-04-24T01:17:40.469Z,4.40
2023-04-24T01:18:45.011Z,4.50
2023-04-24T01:19:47.414Z,4.60
2023-04-24T01:20:54.169Z,4.47
2023-04-24T01:22:03.004Z,4.40
2023-04-24T01:23:06.623Z,4.20
2023-04-24T01:24:09.178Z,4.40
2023-04-24T01:25:11.649Z,4.30
2023-04-24T01:26:18.510Z,4.13
2023-04-24T01:27:21.497Z,4.20
2023-04-24T01:28:24.174Z,4.30
2023-04-24T01:29:26.489Z,4.30
2023-04-24T01:30:29.128Z,4.40
2023-04-24T01:31:33.438Z,4.20
2023-04-24T01:32:37.516Z,4.37
2023-04-24T01:33:39.864Z,4.30
2023-04-24T01:34:43.321Z,4.27
2023-04-24T01:35:46.057Z,4.63
2023-04-24T01:36:49.086Z,4.90
2023-04-24T01:37:51.439Z,4.20
2023-04-24T01:38:53.843Z,4.53
2023-04-24T01:39:56.285Z,4.30
2023-04-24T01:40:58.621Z,4.10
2023-04-24T01:42:01.860Z,4.13
2023-04-24T01:43:04.288Z,4.63
2023-04-24T01:44:07.604Z,4.73
2023-04-24T01:45:12.896Z,4.00
2023-04-24T01:46:15.552Z,5.00
2023-04-24T01:47:18.142Z,4.30
2023-04-24T01:48:20.464Z,4.50
2023-04-24T01:49:22.932Z,4.57
2023-04-24T01:50:25.253Z,4.27
2023-04-24T01:51:28.101Z,4.73
2023-04-24T01:52:32.406Z,4.33
2023-04-24T01:53:34.652Z,4.00
2023-04-24T01:54:38.764Z,4.17
2023-04-24T01:55:42.300Z,4.57
2023-04-24T01:56:45.030Z,4.10
2023-04-24T01:57:47.388Z,4.13
2023-04-24T01:58:54.951Z,4.30
2023-04-24T01:59:58.073Z,4.10
2023-04-24T02:01:01.588Z,3.77
2023-04-24T02:02:05.064Z,4.40
2023-04-24T02:03:09.319Z,4.20
2023-04-24T02:04:13.672Z,4.20
2023-04-24T02:05:17.372Z,4.20
2023-04-24T02:06:19.677Z,4.13
2023-04-24T02:07:22.685Z,4.37
2023-04-24T02:08:25.204Z,4.30
2023-04-24T02:09:27.510Z,4.50
2023-04-24T02:10:29.879Z,4.10
2023-04-24T02:11:34.799Z,4.30
2023-04-24T02:12:37.313Z,4.27
2023-04-24T02:13:39.708Z,4.30
2023-04-24T02:14:43.514Z,4.37
2023-04-24T02:15:47.410Z,4.10
2023-04-24T02:16:49.633Z,4.20
2023-04-24T02:17:51.866Z,4.37
2023-04-24T02:18:54.234Z,4.13
2023-04-24T02:19:57.951Z,4.23
2023-04-24T02:21:00.299Z,4.33
2023-04-24T02:22:02.531Z,4.30
2023-04-24T02:23:04.787Z,4.37
2023-04-24T02:24:07.120Z,4.50
2023-04-24T02:25:10.812Z,4.40
2023-04-24T02:26:13.143Z,4.10
2023-04-24T02:27:15.938Z,4.37
2023-04-24T02:28:18.208Z,4.07
2023-04-24T02:29:21.877Z,4.20
2023-04-24T02:30:26.483Z,4.10
2023-04-24T02:31:29.006Z,4.37
2023-04-24T02:32:32.373Z,4.20
2023-04-24T02:33:34.711Z,4.37
2023-04-24T02:34:37.228Z,4.63
2023-04-24T02:35:42.029Z,4.30
2023-04-24T02:36:44.760Z,4.10
2023-04-24T02:37:47.434Z,4.57
2023-04-24T02:38:50.721Z,4.40
2023-04-24T02:39:53.580Z,4.07
2023-04-24T02:40:56.401Z,4.20
2023-04-24T02:41:59.451Z,3.90
2023-04-24T02:43:01.782Z,4.30
2023-04-24T02:44:04.161Z,4.13
2023-04-24T02:45:07.387Z,4.67
2023-04-24T02:46:09.776Z,4.53
2023-04-24T02:47:12.133Z,4.13
2023-04-24T02:48:16.216Z,4.30
2023-04-24T02:49:18.598Z,4.30
2023-04-24T02:50:21.067Z,4.30
2023-04-24T02:51:25.079Z,4.40
2023-04-24T02:52:27.654Z,4.40
2023-04-24T02:53:32.102Z,4.50
2023-04-24T02:54:34.366Z,4.60
2023-04-24T02:55:37.276Z,4.40
2023-04-24T02:56:39.651Z,4.20
2023-04-24T02:57:43.219Z,4.13
2023-04-24T02:58:45.589Z,4.13
2023-04-24T02:59:48.179Z,4.07
2023-04-24T03:00:54.786Z,4.57
2023-04-24T03:01:57.152Z,4.50
2023-04-24T03:02:59.920Z,4.33
2023-04-24T03:04:03.162Z,4.17
2023-04-24T03:05:06.086Z,4.07
2023-04-24T03:06:09.233Z,3.63
2023-04-24T03:07:11.599Z,3.63
2023-04-24T03:08:13.949Z,3.80
2023-04-24T03:09:16.338Z,3.87
2023-04-24T03:10:18.717Z,3.60
2023-04-24T03:11:21.064Z,3.80
2023-04-24T03:12:25.049Z,4.00
2023-04-24T03:13:27.444Z,3.77
2023-04-24T03:14:37.752Z,3.67
2023-04-24T03:15:40.319Z,3.87
2023-04-24T03:16:44.114Z,3.93
2023-04-24T03:17:46.524Z,3.60
2023-04-24T03:18:49.826Z,3.80
2023-04-24T03:19:52.123Z,3.77
2023-04-24T03:20:55.505Z,3.40
2023-04-24T03:21:57.915Z,3.50
2023-04-24T03:23:00.677Z,3.63
2023-04-24T03:24:03.519Z,3.53
2023-04-24T03:25:06.566Z,3.43
2023-04-24T03:26:08.926Z,3.70
2023-04-24T03:27:14.539Z,4.23
2023-04-24T03:28:43.609Z,3.87
2023-04-24T03:29:46.302Z,3.57
2023-04-24T03:30:49.508Z,3.40
2023-04-24T03:31:53.819Z,3.37
2023-04-24T03:32:56.409Z,3.17
2023-04-24T03:34:02.772Z,3.50
2023-04-24T03:35:05.442Z,3.30
2023-04-24T03:36:08.383Z,2.90
2023-04-24T03:37:18.066Z,3.60
2023-04-24T03:38:27.441Z,3.43
2023-04-24T03:39:35.099Z,3.10
2023-04-24T03:40:37.866Z,3.40
2023-04-24T03:41:47.768Z,3.10
2023-04-24T03:42:54.296Z,3.10
2023-04-24T03:43:56.952Z,2.83
2023-04-24T03:44:59.221Z,2.83
2023-04-24T03:46:06.705Z,2.83
2023-04-24T03:47:13.842Z,2.73
2023-04-24T03:48:16.614Z,2.83
2023-04-24T03:49:20.216Z,2.40
2023-04-24T03:50:23.960Z,2.50
2023-04-24T03:51:26.669Z,2.00
2023-04-24T03:52:32.062Z,2.17
2023-04-24T03:53:35.603Z,1.90
2023-04-24T03:54:37.926Z,1.90
2023-04-24T03:55:41.371Z,2.00
2023-04-24T03:56:44.631Z,1.70
2023-04-24T03:57:48.140Z,1.60
2023-04-24T03:58:57.368Z,1.40
2023-04-24T03:59:59.865Z,1.67
2023-04-24T04:01:02.508Z,1.60
2023-04-24T04:02:28.325Z,1.47
2023-04-24T04:03:31.146Z,1.40
2023-04-24T04:04:33.959Z,1.40
2023-04-24T04:05:36.344Z,1.20
2023-04-24T04:06:38.756Z,1.50
2023-04-24T04:07:41.465Z,1.33
2023-04-24T04:08:44.604Z,1.43
2023-04-24T04:09:46.988Z,1.40
2023-04-24T04:10:49.663Z,1.50
2023-04-24T04:11:51.955Z,1.20
2023-04-24T04:12:54.191Z,1.30
2023-04-24T04:13:57.916Z,1.27
2023-04-24T04:15:00.441Z,1.30
2023-04-24T04:16:04.081Z,1.50
2023-04-24T04:17:06.402Z,1.40
2023-04-24T04:18:09.739Z,1.40
2023-04-24T04:19:12.386Z,1.37
2023-04-24T04:20:14.648Z,1.20
2023-04-24T04:21:17.253Z,1.33
2023-04-24T04:22:19.996Z,1.17
2023-04-24T04:23:25.198Z,1.20
2023-04-24T04:24:41.833Z,1.10
2023-04-24T04:25:45.812Z,1.40
2023-04-24T04:26:48.378Z,1.40
2023-04-24T04:28:01.054Z,1.10
2023-04-24T04:29:04.445Z,1.30
2023-04-24T04:30:08.787Z,1.50
2023-04-24T04:31:23.275Z,1.20
2023-04-24T04:32:26.311Z,1.30
2023-04-24T04:33:28.717Z,1.27
2023-04-24T04:34:32.603Z,1.20
2023-04-24T04:35:35.997Z,1.30
2023-04-24T04:36:41.339Z,1.20
2023-04-24T04:38:09.506Z,1.27
2023-04-24T04:39:34.291Z,1.30
2023-04-24T04:40:47.314Z,1.30
2023-04-24T04:41:51.642Z,1.10
2023-04-24T04:42:56.347Z,1.40
2023-04-24T04:43:59.807Z,1.43
2023-04-24T04:45:02.166Z,1.20
2023-04-24T04:46:15.464Z,1.30
2023-04-24T04:47:41.319Z,1.33
2023-04-24T04:48:45.640Z,1.30
2023-04-24T04:49:47.948Z,1.27
2023-04-24T04:50:56.072Z,1.30
2023-04-24T04:51:59.061Z,1.23
2023-04-24T04:53:02.864Z,1.43
2023-04-24T04:54:09.111Z,1.47
2023-04-24T04:55:14.452Z,1.30
2023-04-24T04:56:52.112Z,1.63
2023-04-24T04:57:56.678Z,1.80
2023-04-24T04:59:00.213Z,1.90
2023-04-24T05:00:02.940Z,2.03
2023-04-24T05:01:17.703Z,1.87
2023-04-24T05:02:22.940Z,1.60
2023-04-24T05:03:25.608Z,1.40
2023-04-24T05:04:33.996Z,1.50
2023-04-24T05:05:36.748Z,1.60
2023-04-24T05:06:39.110Z,1.25
2023-04-24T05:07:42.183Z,1.87
2023-04-24T05:08:45.135Z,1.27
2023-04-24T05:09:58.111Z,1.23
2023-04-24T05:11:00.989Z,1.60
2023-04-24T05:12:05.210Z,1.40
2023-04-24T05:13:15.891Z,1.50
2023-04-24T05:14:20.262Z,1.30
2023-04-24T05:15:22.636Z,1.20
2023-04-24T05:16:24.927Z,1.10
2023-04-24T05:17:29.847Z,1.27
2023-04-24T05:18:33.559Z,1.40
2023-04-24T05:19:39.063Z,1.40
2023-04-24T05:20:45.039Z,1.38
2023-04-24T05:21:47.561Z,1.30
2023-04-24T05:22:50.744Z,1.48
2023-04-24T05:23:54.031Z,1.30
2023-04-24T05:25:09.977Z,1.20
2023-04-24T05:26:16.843Z,1.48
2023-04-24T05:27:19.274Z,1.40
2023-04-24T05:28:22.229Z,1.60
2023-04-24T05:29:36.519Z,1.30
2023-04-24T05:30:40.808Z,1.45
2023-04-24T05:31:44.474Z,1.35
2023-04-24T05:32:47.150Z,1.20
2023-04-24T05:33:49.906Z,1.40
2023-04-24T05:34:52.371Z,1.48
2023-04-24T05:35:56.797Z,1.30
2023-04-24T05:36:59.294Z,1.30
2023-04-24T05:38:02.478Z,1.38
2023-04-24T05:39:08.176Z,1.45
2023-04-24T05:40:11.644Z,1.40
2023-04-24T05:41:13.916Z,1.40
2023-04-24T05:42:16.372Z,1.40
2023-04-24T05:43:18.933Z,1.40
2023-04-24T05:44:21.453Z,1.25
2023-04-24T05:45:24.383Z,1.33
2023-04-24T05:46:26.860Z,1.30
2023-04-24T05:47:29.213Z,1.20
2023-04-24T05:48:32.042Z,1.20
2023-04-24T05:49:38.436Z,1.50
2023-04-24T05:50:42.183Z,1.38
2023-04-24T05:51:45.069Z,1.35
2023-04-24T05:52:47.489Z,1.50
2023-04-24T05:54:00.176Z,1.40
2023-04-24T05:55:02.655Z,1.33
2023-04-24T05:56:10.580Z,1.23
2023-04-24T05:57:12.889Z,1.40
2023-04-24T05:58:26.055Z,1.42
2023-04-24T05:59:28.413Z,1.30
2023-04-24T06:00:30.733Z,1.20
2023-04-24T06:01:39.449Z,1.30
2023-04-24T06:02:48.391Z,1.27
2023-04-24T06:03:51.875Z,1.42
2023-04-24T06:04:56.725Z,1.50
2023-04-24T06:06:00.562Z,1.50
2023-04-24T06:07:03.068Z,1.60
2023-04-24T06:08:05.625Z,1.50
2023-04-24T06:09:13.181Z,1.23
2023-04-24T06:10:15.731Z,1.30
2023-04-24T06:11:20.352Z,1.50
2023-04-24T06:12:23.148Z,1.27
2023-04-24T06:13:33.662Z,1.40
2023-04-24T06:14:56.643Z,1.33
2023-04-24T06:16:24.760Z,1.30
2023-04-24T06:17:34.452Z,1.30
2023-04-24T06:18:36.765Z,1.42
2023-04-24T06:19:40.316Z,1.40
2023-04-24T06:20:42.922Z,1.10
2023-04-24T06:21:46.031Z,1.23
2023-04-24T06:22:48.369Z,1.30
2023-04-24T06:23:50.960Z,1.30
2023-04-24T06:24:54.306Z,1.50
2023-04-24T06:25:56.554Z,1.50
2023-04-24T06:27:00.157Z,1.38
2023-04-24T06:28:03.778Z,1.50
2023-04-24T06:29:08.507Z,1.23
2023-04-24T06:30:12.503Z,1.60
2023-04-24T06:31:14.825Z,1.45
2023-04-24T06:32:17.226Z,1.50
2023-04-24T06:33:21.282Z,1.27
2023-04-24T06:34:25.579Z,1.40
2023-04-24T06:35:27.801Z,1.23
2023-04-24T06:36:30.131Z,1.10
2023-04-24T06:37:33.364Z,1.20
2023-04-24T06:38:35.802Z,1.30
2023-04-24T06:39:38.582Z,1.20
2023-04-24T06:40:41.446Z,1.20
2023-04-24T06:41:43.997Z,1.30
2023-04-24T06:42:54.720Z,1.40
2023-04-24T06:43:57.392Z,1.42
2023-04-24T06:44:59.928Z,1.30
2023-04-24T06:46:04.709Z,1.10
2023-04-24T06:47:07.177Z,1.10
2023-04-24T06:48:09.511Z,1.20
2023-04-24T06:49:12.830Z,1.20
2023-04-24T06:50:15.521Z,1.20
2023-04-24T06:51:19.285Z,1.20
2023-04-24T06:52:21.789Z,1.20
2023-04-24T06:53:26.451Z,1.20
2023-04-24T06:54:28.765Z,1.10
2023-04-24T06:55:31.086Z,1.15
2023-04-24T06:56:35.409Z,1.05
2023-04-24T06:57:37.793Z,1.20
2023-04-24T06:58:40.099Z,1.17
2023-04-24T06:59:42.894Z,1.40
2023-04-24T07:00:45.396Z,1.30
2023-04-24T07:01:47.788Z,1.30
2023-04-24T07:02:51.178Z,1.20
2023-04-24T07:03:53.701Z,1.23
2023-04-24T07:04:56.094Z,1.30
2023-04-24T07:05:59.151Z,1.25
2023-04-24T07:07:02.108Z,1.40
2023-04-24T07:08:04.622Z,1.33
2023-04-24T07:09:06.915Z,1.35
2023-04-24T07:10:09.789Z,1.20
2023-04-24T07:11:12.098Z,1.60
2023-04-24T07:12:14.895Z,1.40
2023-04-24T07:13:17.170Z,1.27
2023-04-24T07:14:19.587Z,1.20
2023-04-24T07:15:21.994Z,1.30
2023-04-24T07:16:24.562Z,1.20
2023-04-24T07:17:27.228Z,1.05
2023-04-24T07:18:29.513Z,1.10
2023-04-24T07:19:32.032Z,1.20
2023-04-24T07:20:34.693Z,1.10
2023-04-24T07:21:36.970Z,1.20
2023-04-24T07:22:40.628Z,1.10
2023-04-24T07:23:43.519Z,1.23
2023-04-24T07:24:46.466Z,1.30
2023-04-24T07:25:48.943Z,1.50
2023-04-24T07:26:53.382Z,1.50
2023-04-24T07:27:55.707Z,1.30
2023-04-24T07:28:58.109Z,1.10
2023-04-24T07:30:00.985Z,1.40
2023-04-24T07:31:03.259Z,1.15
2023-04-24T07:32:05.544Z,1.10
2023-04-24T07:33:08.151Z,1.10
2023-04-24T07:34:10.882Z,1.02
2023-04-24T07:35:13.234Z,1.20
2023-04-24T07:36:20.095Z,1.30
2023-04-24T07:37:22.679Z,1.15
2023-04-24T07:38:26.987Z,1.35
2023-04-24T07:39:31.845Z,1.27
2023-04-24T07:40:35.520Z,1.40
2023-04-24T07:41:37.772Z,1.23
2023-04-24T07:42:40.444Z,1.20
2023-04-24T07:43:43.114Z,1.30
2023-04-24T07:44:45.684Z,1.20
2023-04-24T07:45:48.159Z,1.10
2023-04-24T07:46:50.606Z,1.00
2023-04-24T07:47:53.224Z,1.27
2023-04-24T07:49:05.653Z,1.05
2023-04-24T07:50:14.460Z,1.10
2023-04-24T07:51:17.014Z,0.95
2023-04-24T07:52:19.285Z,1.10
2023-04-24T07:53:21.819Z,1.20
2023-04-24T07:54:24.414Z,1.33
2023-04-24T07:55:28.273Z,1.17
2023-04-24T07:56:32.497Z,1.27
2023-04-24T07:57:34.932Z,1.05
2023-04-24T07:58:37.335Z,1.00
2023-04-24T07:59:39.641Z,1.10
2023-04-24T08:00:41.980Z,1.17
2023-04-24T08:01:44.260Z,1.17
2023-04-24T08:02:46.743Z,1.15
2023-04-24T08:03:49.373Z,1.10
2023-04-24T08:04:52.156Z,1.13
2023-04-24T08:05:54.699Z,1.00
2023-04-24T08:06:58.477Z,1.00
2023-04-24T08:08:00.981Z,1.05
2023-04-24T08:09:04.230Z,1.20
2023-04-24T08:10:07.186Z,1.10
2023-04-24T08:11:09.575Z,0.90
2023-04-24T08:12:12.959Z,1.10
2023-04-24T08:13:15.328Z,1.00
2023-04-24T08:14:17.806Z,0.90
2023-04-24T08:15:20.186Z,1.10
2023-04-24T08:16:22.699Z,1.10
2023-04-24T08:17:26.705Z,1.05
2023-04-24T08:18:29.267Z,0.98
2023-04-24T08:19:31.691Z,1.00
2023-04-24T08:20:34.085Z,1.00
2023-04-24T08:21:36.337Z,1.20
2023-04-24T08:22:38.575Z,1.35
2023-04-24T08:23:42.474Z,1.10
2023-04-24T08:24:45.242Z,1.00
2023-04-24T08:25:47.637Z,1.13
2023-04-24T08:26:51.557Z,1.02
2023-04-24T08:27:53.845Z,1.08
2023-04-24T08:28:56.209Z,1.20
2023-04-24T08:30:00.000Z,1.10
2023-04-24T08:31:02.231Z,1.05
2023-04-24T08:32:04.765Z,1.00
2023-04-24T08:33:07.522Z,1.15
2023-04-24T08:34:11.029Z,1.08
2023-04-24T08:35:13.723Z,1.40
2023-04-24T08:36:16.097Z,1.25
2023-04-24T08:37:18.391Z,1.20
2023-04-24T08:38:20.838Z,1.20
2023-04-24T08:39:23.184Z,1.63
2023-04-24T08:40:31.935Z,1.40
2023-04-24T08:41:35.756Z,1.50
2023-04-24T08:42:38.965Z,1.30
2023-04-24T08:43:41.896Z,1.17
2023-04-24T08:44:45.221Z,1.00
2023-04-24T08:45:47.840Z,1.52
2023-04-24T08:46:50.305Z,1.17
2023-04-24T08:47:54.842Z,1.10
2023-04-24T08:48:57.607Z,1.00
2023-04-24T08:50:00.906Z,1.23
2023-04-24T08:51:05.243Z,1.10
2023-04-24T08:52:07.689Z,0.95
2023-04-24T08:53:10.361Z,1.25
2023-04-24T08:54:15.161Z,1.20
2023-04-24T08:55:21.497Z,0.95
2023-04-24T08:56:24.846Z,1.00
2023-04-24T08:57:27.944Z,1.00
2023-04-24T08:58:31.930Z,1.30
2023-04-24T08:59:35.127Z,1.15
2023-04-24T09:00:40.092Z,1.20
2023-04-24T09:01:42.865Z,0.85
2023-04-24T09:02:46.624Z,1.15
2023-04-24T09:03:54.588Z,0.98
2023-04-24T09:04:58.068Z,1.20
2023-04-24T09:06:02.344Z,1.08
2023-04-24T09:07:07.276Z,1.00
2023-04-24T09:08:12.345Z,1.10
2023-04-24T09:09:14.861Z,1.05
2023-04-24T09:10:17.345Z,1.10
2023-04-24T09:11:19.745Z,1.00
2023-04-24T09:12:22.080Z,1.20
2023-04-24T09:13:24.511Z,1.30
2023-04-24T09:14:27.405Z,1.05
2023-04-24T09:15:30.465Z,1.10
2023-04-24T09:16:36.516Z,1.00
2023-04-24T09:17:39.794Z,0.90
2023-04-24T09:18:42.350Z,0.93
2023-04-24T09:19:44.746Z,1.20
2023-04-24T09:21:04.881Z,1.10
2023-04-24T09:22:08.857Z,1.10
2023-04-24T09:23:17.336Z,1.00
2023-04-24T09:24:24.493Z,1.00
2023-04-24T09:25:33.871Z,1.10
2023-04-24T09:26:37.715Z,1.10
2023-04-24T09:27:45.912Z,1.10
2023-04-24T09:28:48.177Z,1.20
2023-04-24T09:29:58.169Z,0.80
2023-04-24T09:31:15.148Z,1.00
2023-04-24T09:32:26.932Z,1.10
2023-04-24T09:33:29.216Z,1.00
2023-04-24T09:34:31.793Z,0.95
2023-04-24T09:35:34.070Z,1.00
2023-04-24T09:36:39.158Z,1.00
2023-04-24T09:37:47.520Z,0.90
2023-04-24T09:38:49.792Z,0.80
2023-04-24T09:40:21.805Z,1.17
2023-04-24T09:41:24.744Z,1.00
2023-04-24T09:42:30.289Z,1.15
2023-04-24T09:43:33.325Z,1.10
2023-04-24T09:44:35.872Z,1.13
2023-04-24T09:45:40.262Z,1.00
2023-04-24T09:46:43.881Z,1.10
2023-04-24T09:47:46.844Z,1.00
2023-04-24T09:48:49.320Z,1.30
2023-04-24T09:49:51.586Z,1.38
2023-04-24T09:50:53.946Z,1.60
2023-04-24T09:52:06.957Z,1.60
2023-04-24T09:53:10.126Z,1.42
2023-04-24T09:54:17.544Z,1.60
2023-04-24T09:55:23.004Z,1.50
2023-04-24T09:56:27.420Z,1.25
2023-04-24T09:57:29.691Z,1.08
2023-04-24T09:58:31.972Z,1.17
2023-04-24T09:59:36.100Z,1.08
2023-04-24T10:00:39.780Z,1.10
2023-04-24T10:01:46.070Z,1.05
2023-04-24T10:02:52.286Z,1.00
2023-04-24T10:03:54.984Z,1.00
2023-04-24T10:04:58.621Z,0.90
2023-04-24T10:06:02.563Z,1.10
2023-04-24T10:07:07.893Z,1.00
2023-04-24T10:08:12.722Z,1.20
2023-04-24T10:09:15.250Z,0.95
2023-04-24T10:10:19.086Z,1.00
2023-04-24T10:11:21.388Z,1.20
2023-04-24T10:12:24.540Z,1.00
2023-04-24T10:13:27.198Z,1.00
2023-04-24T10:14:31.171Z,1.23
2023-04-24T10:15:33.575Z,0.95
2023-04-24T10:16:36.232Z,0.93
2023-04-24T10:17:39.533Z,1.17
2023-04-24T10:18:42.070Z,1.00
2023-04-24T10:19:44.960Z,1.08
2023-04-24T10:20:47.505Z,1.42
2023-04-24T10:21:50.877Z,1.23
2023-04-24T10:22:54.966Z,1.00
2023-04-24T10:23:58.004Z,1.00
2023-04-24T10:25:00.473Z,1.08
2023-04-24T10:26:03.040Z,1.00
2023-04-24T10:27:06.636Z,1.10
2023-04-24T10:28:11.159Z,1.27
2023-04-24T10:29:16.650Z,0.90
2023-04-24T10:30:20.735Z,1.10
2023-04-24T10:31:23.500Z,1.20
2023-04-24T10:32:25.828Z,1.23
2023-04-24T10:33:29.023Z,1.08
2023-04-24T10:34:33.817Z,1.08
2023-04-24T10:35:43.302Z,1.10
2023-04-24T10:36:54.352Z,1.00
2023-04-24T10:38:09.213Z,0.90
2023-04-24T10:39:15.975Z,1.00
2023-04-24T10:40:37.254Z,0.90
2023-04-24T10:41:39.796Z,1.10
2023-04-24T10:42:43.903Z,1.17
2023-04-24T10:43:47.189Z,1.00
2023-04-24T10:44:50.380Z,1.00
2023-04-24T10:46:04.350Z,1.00
2023-04-24T10:47:06.826Z,1.00
2023-04-24T10:48:14.764Z,0.82
2023-04-24T10:49:17.429Z,1.05
2023-04-24T10:50:20.022Z,0.90
2023-04-24T10:51:44.692Z,1.08
2023-04-24T10:52:48.678Z,0.98
2023-04-24T10:53:52.596Z,1.00
2023-04-24T10:54:59.287Z,1.00
2023-04-24T10:56:07.383Z,1.10
2023-04-24T10:57:23.097Z,1.10
2023-04-24T10:58:38.553Z,1.10
2023-04-24T10:59:41.067Z,1.10
2023-04-24T11:00:45.978Z,1.20
2023-04-24T11:01:55.334Z,1.13
2023-04-24T11:02:58.948Z,1.00
2023-04-24T11:04:04.344Z,1.30
2023-04-24T11:05:08.106Z,1.33
2023-04-24T11:06:11.774Z,1.30
2023-04-24T11:07:14.255Z,1.13
2023-04-24T11:08:22.634Z,1.10
2023-04-24T11:09:28.652Z,0.93
2023-04-24T11:10:31.113Z,1.02
2023-04-24T11:11:34.144Z,0.90
2023-04-24T11:12:36.585Z,1.10
2023-04-24T11:13:57.741Z,1.10
2023-04-24T11:15:02.534Z,1.02
2023-04-24T11:16:38.996Z,0.90
2023-04-24T11:17:43.754Z,1.13
2023-04-24T11:18:52.000Z,0.90
2023-04-24T11:20:15.405Z,1.17
2023-04-24T11:21:26.420Z,1.10
2023-04-24T11:22:32.409Z,1.30
2023-04-24T11:23:38.478Z,1.00
2023-04-24T11:24:50.159Z,1.27
2023-04-24T11:26:19.774Z,0.88
2023-04-24T11:27:23.516Z,1.10
2023-04-24T11:28:25.945Z,1.17
2023-04-24T11:29:40.241Z,1.10
2023-04-24T11:30:42.579Z,1.10
2023-04-24T11:31:51.057Z,1.30
2023-04-24T11:32:53.437Z,1.08
2023-04-24T11:33:56.354Z,1.10
2023-04-24T11:35:09.256Z,0.93
2023-04-24T11:36:11.643Z,0.95
2023-04-24T11:37:14.641Z,1.08
2023-04-24T11:38:24.619Z,1.10
2023-04-24T11:39:27.282Z,1.00
2023-04-24T11:40:29.584Z,1.00
2023-04-24T11:41:32.588Z,0.82
2023-04-24T11:42:37.974Z,1.27
2023-04-24T11:43:40.854Z,1.10
2023-04-24T11:44:44.094Z,1.02
2023-04-24T11:45:49.893Z,1.23
2023-04-24T11:46:52.262Z,1.08
2023-04-24T11:47:55.013Z,1.10
2023-04-24T11:48:58.150Z,1.10
2023-04-24T11:50:02.076Z,0.95
2023-04-24T11:51:04.882Z,1.05
2023-04-24T11:52:07.862Z,1.08
2023-04-24T11:53:10.173Z,1.15
2023-04-24T11:54:14.291Z,1.00
2023-04-24T11:55:16.552Z,1.05
2023-04-24T11:56:22.583Z,1.00
2023-04-24T11:57:30.037Z,1.00
2023-04-24T11:58:40.347Z,0.90
2023-04-24T11:59:42.796Z,1.02
2023-04-24T12:00:46.816Z,0.98
2023-04-24T12:01:50.376Z,1.08
2023-04-24T12:02:53.284Z,1.10
2023-04-24T12:04:01.271Z,1.10
2023-04-24T12:05:04.994Z,1.00
2023-04-24T12:06:09.415Z,1.23
2023-04-24T12:07:12.272Z,0.93
2023-04-24T12:08:31.286Z,0.90
2023-04-24T12:09:44.110Z,0.90
2023-04-24T12:10:52.425Z,1.10
2023-04-24T12:11:58.782Z,0.90
2023-04-24T12:13:01.640Z,0.75
2023-04-24T12:14:12.172Z,1.00
2023-04-24T12:15:16.891Z,0.90
2023-04-24T12:16:19.215Z,0.90
2023-04-24T12:17:33.359Z,1.00
2023-04-24T12:18:35.842Z,1.13
2023-04-24T12:19:38.124Z,1.10
2023-04-24T12:20:41.750Z,1.13
2023-04-24T12:21:45.143Z,1.10
2023-04-24T12:22:58.576Z,1.00
2023-04-24T12:24:00.838Z,0.90
2023-04-24T12:25:05.154Z,1.10
2023-04-24T12:26:07.503Z,1.00
2023-04-24T12:27:21.772Z,1.00
2023-04-24T12:28:24.015Z,0.90
2023-04-24T12:29:26.488Z,1.00
2023-04-24T12:30:30.420Z,1.00
2023-04-24T12:31:33.860Z,1.10
2023-04-24T12:32:36.232Z,1.00
2023-04-24T12:33:39.825Z,1.00
2023-04-24T12:34:44.777Z,1.00
2023-04-24T12:35:54.561Z,1.25
2023-04-24T12:36:56.942Z,1.00
2023-04-24T12:38:14.438Z,1.10
2023-04-24T12:39:18.625Z,1.00
2023-04-24T12:40:22.861Z,1.00
2023-04-24T12:41:25.115Z,1.00
2023-04-24T12:42:31.945Z,1.00
2023-04-24T12:43:34.709Z,1.20
2023-04-24T12:44:38.260Z,1.08
2023-04-24T12:45:41.223Z,1.08
2023-04-24T12:46:43.544Z,1.20
2023-04-24T12:47:46.914Z,0.90
2023-04-24T12:48:49.166Z,1.00
2023-04-24T12:49:53.490Z,1.02
2023-04-24T12:50:57.709Z,1.08
2023-04-24T12:51:59.982Z,1.00
2023-04-24T12:53:02.286Z,1.00
2023-04-24T12:54:04.622Z,0.90
2023-04-24T12:55:10.578Z,0.90
2023-04-24T12:56:12.869Z,1.00
2023-04-24T12:57:15.328Z,1.00
2023-04-24T12:58:17.543Z,1.00
2023-04-24T12:59:19.767Z,0.95
2023-04-24T13:00:22.280Z,1.02
2023-04-24T13:01:24.595Z,1.00
2023-04-24T13:02:30.363Z,0.90
2023-04-24T13:03:32.820Z,1.10
2023-04-24T13:04:35.079Z,1.00
2023-04-24T13:05:37.430Z,0.98
2023-04-24T13:06:39.722Z,1.02
2023-04-24T13:07:42.025Z,1.00
2023-04-24T13:08:44.350Z,1.00
2023-04-24T13:09:47.197Z,1.10
2023-04-24T13:10:49.658Z,1.10
2023-04-24T13:11:52.158Z,1.17
2023-04-24T13:12:54.514Z,1.10
2023-04-24T13:13:56.748Z,1.10
2023-04-24T13:14:59.854Z,1.08
2023-04-24T13:16:02.184Z,1.10
2023-04-24T13:17:05.120Z,1.10
2023-04-24T13:18:07.417Z,1.20
2023-04-24T13:19:09.701Z,1.20
2023-04-24T13:20:12.125Z,1.20
2023-04-24T13:21:14.438Z,1.27
2023-04-24T13:22:16.775Z,1.15
2023-04-24T13:23:19.209Z,1.00
2023-04-24T13:24:21.443Z,1.30
2023-04-24T13:25:24.763Z,1.20
2023-04-24T13:26:27.040Z,1.10
2023-04-24T13:27:29.348Z,1.30
2023-04-24T13:28:31.964Z,1.10
2023-04-24T13:29:34.250Z,1.20
2023-04-24T13:30:36.580Z,1.00
2023-04-24T13:31:38.909Z,1.10
2023-04-24T13:32:41.308Z,1.10
2023-04-24T13:33:43.985Z,1.10
2023-04-24T13:34:47.005Z,1.00
2023-04-24T13:35:49.263Z,1.00
2023-04-24T13:36:53.644Z,0.80
2023-04-24T13:37:56.220Z,1.30
2023-04-24T13:38:58.480Z,1.42
2023-04-24T13:40:00.742Z,1.23
2023-04-24T13:41:03.872Z,1.25
2023-04-24T13:42:06.200Z,1.00
2023-04-24T13:43:08.432Z,1.10
2023-04-24T13:44:10.690Z,1.00
2023-04-24T13:45:24.052Z,1.13
2023-04-24T13:46:27.309Z,1.20
2023-04-24T13:47:29.718Z,1.17
2023-04-24T13:48:32.582Z,1.20
2023-04-24T13:49:34.823Z,1.40
2023-04-24T13:50:38.393Z,1.20
2023-04-24T13:51:41.784Z,1.00
2023-04-24T13:52:43.984Z,1.08
2023-04-24T13:53:46.248Z,1.30
2023-04-24T13:54:49.453Z,1.20
2023-04-24T13:55:51.812Z,1.17
2023-04-24T13:56:54.657Z,1.10
2023-04-24T13:57:57.048Z,1.15
2023-04-24T13:58:59.406Z,1.00
2023-04-24T14:00:05.334Z,1.00
2023-04-24T14:01:09.449Z,0.88
2023-04-24T14:02:12.048Z,1.05
2023-04-24T14:03:14.639Z,0.95
2023-04-24T14:04:17.335Z,1.10
2023-04-24T14:05:19.925Z,0.95
2023-04-24T14:06:22.684Z,1.02
2023-04-24T14:07:25.290Z,1.00
2023-04-24T14:08:27.611Z,1.00
2023-04-24T14:09:30.376Z,1.10
2023-04-24T14:10:32.766Z,1.02
2023-04-24T14:11:35.505Z,1.00
2023-04-24T14:12:37.825Z,1.10
2023-04-24T14:13:42.377Z,1.00
2023-04-24T14:14:44.951Z,1.15
2023-04-24T14:15:47.576Z,1.00